createdAt,value
2023-04-06T00:00:06.103Z,8.17
2023-04-06T00:02:33.505Z,8.57
2023-04-06T00:05:00.760Z,6.27
2023-04-06T00:07:29.401Z,5.27
2023-04-06T00:09:58.786Z,6.27
2023-04-06T00:12:25.887Z,5.63
2023-04-06T00:14:52.880Z,6.03
2023-04-06T00:17:22.485Z,5.30
2023-04-06T00:19:49.584Z,5.53
2023-04-06T00:22:16.850Z,9.37
2023-04-06T00:24:43.938Z,16.83
2023-04-06T00:27:11.208Z,6.87
2023-04-06T00:29:40.777Z,11.53
2023-04-06T00:32:08.023Z,5.97
2023-04-06T00:34:38.746Z,6.07
2023-04-06T00:37:06.000Z,8.43
2023-04-06T00:39:33.004Z,5.40
2023-04-06T00:42:01.322Z,6.17
2023-04-06T00:44:33.231Z,8.17
2023-04-06T00:47:00.365Z,7.60
2023-04-06T00:49:27.921Z,5.67
2023-04-06T00:51:55.625Z,6.43
2023-04-06T00:54:25.009Z,6.37
2023-04-06T00:56:56.298Z,5.13
2023-04-06T00:59:30.707Z,7.80
2023-04-06T01:02:00.750Z,5.37
2023-04-06T01:04:28.552Z,8.23
2023-04-06T01:06:55.546Z,6.33
2023-04-06T01:09:23.739Z,5.07
2023-04-06T01:11:50.932Z,6.60
2023-04-06T01:14:18.198Z,13.47
2023-04-06T01:16:45.658Z,5.67
2023-04-06T01:19:15.873Z,15.33
2023-04-06T01:21:43.441Z,6.00
2023-04-06T01:24:10.886Z,6.20
2023-04-06T01:26:39.458Z,6.17
2023-04-06T01:29:06.547Z,5.67
2023-04-06T01:31:33.877Z,6.37
2023-04-06T01:34:01.829Z,7.30
2023-04-06T01:36:28.982Z,6.10
2023-04-06T01:38:58.495Z,5.57
2023-04-06T01:41:28.010Z,5.07
2023-04-06T01:43:57.414Z,6.10
2023-04-06T01:46:24.442Z,5.00
2023-04-06T01:48:52.093Z,5.90
2023-04-06T01:51:25.453Z,5.10
2023-04-06T01:53:54.972Z,5.57
2023-04-06T01:56:22.338Z,5.33
2023-04-06T01:58:49.391Z,7.90
2023-04-06T02:01:16.983Z,5.50
2023-04-06T02:03:44.055Z,10.23
2023-04-06T02:06:11.101Z,5.40
2023-04-06T02:08:38.262Z,4.87
2023-04-06T02:11:07.640Z,5.00
2023-04-06T02:13:34.951Z,5.57
2023-04-06T02:16:04.335Z,5.60
2023-04-06T02:18:32.590Z,6.07
2023-04-06T02:21:02.423Z,4.37
2023-04-06T02:23:34.327Z,5.40
2023-04-06T02:26:03.736Z,8.10
2023-04-06T02:28:30.994Z,5.67
2023-04-06T02:30:58.597Z,10.60
2023-04-06T02:33:25.588Z,6.10
2023-04-06T02:35:52.988Z,5.63
2023-04-06T02:38:20.067Z,6.27
2023-04-06T02:40:47.201Z,8.03
2023-04-06T02:43:18.815Z,7.23
2023-04-06T02:45:48.678Z,5.37
2023-04-06T02:48:15.802Z,5.80
2023-04-06T02:50:42.920Z,5.27
2023-04-06T02:53:12.400Z,7.13
2023-04-06T02:55:39.892Z,5.83
2023-04-06T02:58:10.121Z,9.33
2023-04-06T03:00:38.253Z,6.40
2023-04-06T03:03:05.629Z,5.50
2023-04-06T03:05:32.884Z,6.10
2023-04-06T03:07:59.754Z,9.67
2023-04-06T03:10:27.020Z,8.07
2023-04-06T03:12:56.151Z,5.17
2023-04-06T03:15:26.289Z,10.40
2023-04-06T03:17:56.769Z,7.30
2023-04-06T03:20:25.357Z,6.23
2023-04-06T03:22:52.455Z,6.93
2023-04-06T03:25:19.426Z,6.63
2023-04-06T03:27:51.506Z,5.73
2023-04-06T03:30:21.278Z,5.20
2023-04-06T03:32:48.914Z,5.70
2023-04-06T03:35:16.435Z,6.10
2023-04-06T03:37:46.282Z,6.17
2023-04-06T03:40:13.281Z,8.77
2023-04-06T03:42:40.467Z,6.60
2023-04-06T03:45:10.821Z,10.43
2023-04-06T03:47:38.244Z,6.97
2023-04-06T03:50:06.025Z,14.20
2023-04-06T03:52:33.151Z,8.20
2023-04-06T03:55:00.327Z,7.43
2023-04-06T03:57:34.346Z,6.70
2023-04-06T04:00:01.339Z,5.53
2023-04-06T04:02:30.897Z,6.33
2023-04-06T04:05:01.033Z,8.80
2023-04-06T04:07:28.069Z,5.77
2023-04-06T04:09:55.163Z,8.67
2023-04-06T04:12:22.292Z,6.80
2023-04-06T04:14:49.450Z,6.63
2023-04-06T04:17:16.636Z,5.97
2023-04-06T04:19:46.244Z,5.73
2023-04-06T04:22:13.221Z,6.37
2023-04-06T04:24:40.237Z,9.60
2023-04-06T04:27:10.339Z,6.97
2023-04-06T04:29:39.795Z,10.53
2023-04-06T04:32:06.863Z,6.60
2023-04-06T04:34:34.103Z,8.10
2023-04-06T04:37:05.986Z,7.93
2023-04-06T04:39:33.500Z,10.90
2023-04-06T04:42:00.685Z,6.27
2023-04-06T04:44:27.544Z,6.27
2023-04-06T04:46:57.887Z,8.20
2023-04-06T04:49:24.858Z,8.73
2023-04-06T04:51:54.974Z,9.33
2023-04-06T04:54:22.070Z,9.60
2023-04-06T04:56:49.078Z,11.80
2023-04-06T04:59:18.229Z,7.07
2023-04-06T05:01:54.727Z,10.07
2023-04-06T05:04:24.552Z,7.40
2023-04-06T05:06:51.854Z,8.67
2023-04-06T05:09:21.582Z,10.20
2023-04-06T05:11:48.719Z,14.37
2023-04-06T05:14:16.712Z,12.43
2023-04-06T05:16:43.848Z,10.07
2023-04-06T05:19:13.346Z,8.90
2023-04-06T05:21:42.631Z,7.63
2023-04-06T05:24:09.836Z,11.70
2023-04-06T05:26:36.891Z,12.80
2023-04-06T05:29:08.993Z,6.87
2023-04-06T05:31:36.283Z,11.27
2023-04-06T05:34:05.242Z,47.87
2023-04-06T05:36:33.158Z,11.53
2023-04-06T05:39:00.390Z,16.27
2023-04-06T05:41:27.481Z,18.40
2023-04-06T05:43:57.590Z,7.57
2023-04-06T05:46:27.050Z,9.93
2023-04-06T05:48:56.430Z,10.20
2023-04-06T05:51:26.026Z,11.83
2023-04-06T05:53:53.013Z,7.93
2023-04-06T05:56:20.027Z,11.17
2023-04-06T05:58:47.408Z,9.83
2023-04-06T06:01:14.506Z,12.43
2023-04-06T06:03:43.945Z,8.20
2023-04-06T06:06:11.091Z,19.50
2023-04-06T06:08:38.357Z,8.43
2023-04-06T06:11:05.288Z,19.00
2023-04-06T06:13:37.839Z,11.90
2023-04-06T06:16:07.604Z,8.00
2023-04-06T06:18:34.632Z,7.70
2023-04-06T06:21:05.021Z,15.30
2023-04-06T06:23:34.219Z,8.30
2023-04-06T06:26:02.074Z,11.20
2023-04-06T06:28:31.628Z,6.50
2023-04-06T06:30:59.570Z,9.70
2023-04-06T06:33:29.082Z,6.50
2023-04-06T06:35:58.424Z,10.90
2023-04-06T06:38:25.650Z,6.30
2023-04-06T06:40:58.112Z,11.30
2023-04-06T06:43:25.106Z,6.27
2023-04-06T06:45:52.040Z,6.17
2023-04-06T06:48:18.997Z,6.23
2023-04-06T06:50:49.234Z,5.97
2023-04-06T06:53:19.046Z,12.23
2023-04-06T06:55:46.162Z,6.20
2023-04-06T06:58:13.432Z,5.40
2023-04-06T07:00:40.620Z,10.13
2023-04-06T07:03:10.278Z,7.47
2023-04-06T07:05:38.860Z,4.87
2023-04-06T07:08:08.088Z,5.13
2023-04-06T07:10:35.322Z,6.27
2023-04-06T07:13:04.565Z,6.20
2023-04-06T07:15:34.041Z,6.13
2023-04-06T07:18:03.644Z,6.27
2023-04-06T07:20:30.801Z,6.83
2023-04-06T07:23:04.968Z,8.43
2023-04-06T07:25:32.084Z,6.60
2023-04-06T07:27:59.094Z,8.57
2023-04-06T07:30:31.549Z,5.30
2023-04-06T07:33:01.685Z,8.77
2023-04-06T07:35:31.274Z,6.93
2023-04-06T07:37:58.841Z,11.47
2023-04-06T07:40:27.134Z,6.50
2023-04-06T07:42:57.955Z,6.90
2023-04-06T07:45:27.823Z,6.00
2023-04-06T07:47:57.445Z,6.20
2023-04-06T07:50:27.620Z,6.00
2023-04-06T07:52:58.771Z,6.10
2023-04-06T07:55:25.843Z,5.83
2023-04-06T07:57:55.435Z,8.70
2023-04-06T08:00:23.096Z,5.13
2023-04-06T08:02:50.285Z,8.20
2023-04-06T08:05:20.483Z,15.20
2023-04-06T08:07:47.611Z,5.20
2023-04-06T08:10:14.756Z,6.77
2023-04-06T08:12:41.962Z,8.23
2023-04-06T08:15:09.421Z,7.33
2023-04-06T08:17:36.591Z,6.30
2023-04-06T08:20:04.840Z,5.70
2023-04-06T08:22:31.961Z,9.50
2023-04-06T08:25:01.541Z,5.83
2023-04-06T08:27:28.562Z,6.23
2023-04-06T08:29:58.120Z,5.70
2023-04-06T08:32:26.701Z,7.20
2023-04-06T08:34:59.280Z,6.03
2023-04-06T08:37:26.363Z,5.10
2023-04-06T08:39:55.828Z,5.27
2023-04-06T08:42:27.328Z,6.63
2023-04-06T08:44:55.975Z,7.70
2023-04-06T08:47:24.852Z,5.03
2023-04-06T08:49:56.375Z,5.93
2023-04-06T08:52:30.824Z,5.70
2023-04-06T08:55:00.857Z,5.97
2023-04-06T08:57:28.338Z,6.20
2023-04-06T09:00:00.685Z,5.47
2023-04-06T09:02:28.511Z,6.00
2023-04-06T09:04:56.008Z,5.87
2023-04-06T09:07:23.401Z,6.30
2023-04-06T09:09:52.816Z,7.27
2023-04-06T09:12:27.528Z,6.23
2023-04-06T09:14:55.391Z,6.00
2023-04-06T09:17:33.782Z,7.03
2023-04-06T09:20:02.648Z,5.70
2023-04-06T09:22:40.964Z,5.70
2023-04-06T09:25:09.763Z,6.43
2023-04-06T09:27:39.239Z,5.10
2023-04-06T09:30:16.941Z,6.53
2023-04-06T09:32:52.043Z,6.47
2023-04-06T09:35:23.214Z,6.43
2023-04-06T09:37:52.836Z,7.63
2023-04-06T09:40:23.387Z,18.27
2023-04-06T09:42:54.666Z,8.97
2023-04-06T09:45:22.363Z,6.87
2023-04-06T09:47:52.398Z,15.00
2023-04-06T09:50:21.505Z,7.33
2023-04-06T09:52:55.153Z,11.43
2023-04-06T09:55:32.163Z,12.47
2023-04-06T09:58:09.750Z,16.63
2023-04-06T10:00:51.145Z,7.00
2023-04-06T10:03:32.567Z,8.20
2023-04-06T10:06:06.946Z,7.50
2023-04-06T10:08:35.794Z,6.37
2023-04-06T10:11:03.915Z,8.30
2023-04-06T10:13:33.769Z,8.43
2023-04-06T10:16:05.191Z,11.90
2023-04-06T10:18:32.463Z,8.23
2023-04-06T10:21:21.874Z,7.70
2023-04-06T10:23:55.568Z,11.47
2023-04-06T10:26:26.113Z,9.10
2023-04-06T10:29:02.728Z,8.00
2023-04-06T10:31:32.470Z,9.70
2023-04-06T10:34:04.064Z,8.43
2023-04-06T10:36:35.970Z,7.60
2023-04-06T10:39:07.316Z,8.47
2023-04-06T10:41:43.344Z,8.13
2023-04-06T10:44:22.847Z,8.77
2023-04-06T10:47:03.858Z,8.10
2023-04-06T10:49:31.129Z,8.03
2023-04-06T10:51:58.735Z,7.00
2023-04-06T10:54:28.136Z,13.03
2023-04-06T10:56:57.806Z,7.80
2023-04-06T10:59:26.352Z,8.40
2023-04-06T11:01:54.203Z,8.97
2023-04-06T11:04:22.098Z,15.83
2023-04-06T11:06:52.847Z,9.00
2023-04-06T11:09:30.824Z,8.50
2023-04-06T11:11:58.329Z,8.70
2023-04-06T11:14:27.646Z,8.47
2023-04-06T11:16:57.680Z,11.13
2023-04-06T11:19:28.026Z,8.87
2023-04-06T11:21:54.977Z,11.20
2023-04-06T11:24:26.450Z,9.73
2023-04-06T11:27:01.503Z,8.80
2023-04-06T11:29:39.353Z,10.63
2023-04-06T11:32:10.049Z,11.23
2023-04-06T11:34:40.461Z,10.83
2023-04-06T11:37:13.475Z,9.30
2023-04-06T11:39:58.233Z,9.33
2023-04-06T11:42:27.601Z,13.93
2023-04-06T11:45:02.157Z,7.70
2023-04-06T11:47:34.234Z,9.27
2023-04-06T11:50:15.726Z,11.33
2023-04-06T11:52:45.509Z,10.53
2023-04-06T11:55:20.558Z,8.60
2023-04-06T11:57:50.893Z,9.43
2023-04-06T12:00:19.113Z,10.93
2023-04-06T12:02:50.664Z,10.00
2023-04-06T12:05:20.244Z,9.43
2023-04-06T12:07:47.319Z,9.90
2023-04-06T12:10:16.760Z,10.07
2023-04-06T12:12:46.347Z,10.90
2023-04-06T12:15:13.514Z,9.60
2023-04-06T12:17:43.121Z,9.40
2023-04-06T12:20:24.632Z,9.97
2023-04-06T12:22:55.455Z,10.70
2023-04-06T12:25:24.852Z,10.00
2023-04-06T12:27:52.004Z,10.00
2023-04-06T12:30:19.378Z,11.77
2023-04-06T12:32:48.892Z,10.37
2023-04-06T12:35:17.707Z,10.17
2023-04-06T12:37:47.011Z,10.40
2023-04-06T12:40:15.843Z,16.33
2023-04-06T12:42:43.017Z,11.20
2023-04-06T12:45:13.280Z,12.10
2023-04-06T12:47:45.422Z,10.17
2023-04-06T12:50:15.125Z,10.53
2023-04-06T12:52:42.125Z,10.17
2023-04-06T12:55:09.855Z,20.67
2023-04-06T12:57:38.237Z,9.70
2023-04-06T13:00:09.468Z,10.70
2023-04-06T13:02:36.814Z,10.17
2023-04-06T13:05:04.201Z,10.40
2023-04-06T13:07:33.753Z,14.07
2023-04-06T13:10:01.036Z,10.63
2023-04-06T13:12:28.133Z,11.93
2023-04-06T13:14:55.839Z,11.00
2023-04-06T13:17:27.766Z,13.03
2023-04-06T13:19:54.954Z,10.37
2023-04-06T13:22:24.324Z,11.93
2023-04-06T13:24:54.447Z,10.90
2023-04-06T13:27:23.840Z,11.20
2023-04-06T13:29:53.359Z,10.70
2023-04-06T13:32:22.977Z,10.50
2023-04-06T13:34:54.193Z,10.50
2023-04-06T13:37:21.674Z,14.10
2023-04-06T13:39:49.001Z,15.90
2023-04-06T13:42:16.151Z,10.90
2023-04-06T13:44:48.854Z,11.03
2023-04-06T13:47:16.971Z,12.80
2023-04-06T13:49:44.159Z,10.30
2023-04-06T13:52:11.569Z,12.03
2023-04-06T13:54:38.969Z,16.77
2023-04-06T13:57:08.782Z,13.73
2023-04-06T13:59:41.666Z,13.80
2023-04-06T14:02:11.402Z,13.83
2023-04-06T14:04:39.056Z,10.53
2023-04-06T14:07:09.793Z,13.23
2023-04-06T14:09:39.107Z,13.73
2023-04-06T14:12:06.442Z,12.47
2023-04-06T14:14:33.636Z,18.13
2023-04-06T14:17:03.972Z,10.90
2023-04-06T14:19:31.056Z,11.93
2023-04-06T14:22:01.113Z,14.10
2023-04-06T14:24:28.247Z,10.20
2023-04-06T14:26:55.468Z,11.27
2023-04-06T14:29:22.532Z,14.70
2023-04-06T14:31:49.890Z,11.07
2023-04-06T14:34:17.944Z,11.63
2023-04-06T14:36:45.001Z,12.70
2023-04-06T14:39:12.153Z,11.70
2023-04-06T14:41:39.233Z,14.40
2023-04-06T14:44:13.098Z,14.27
2023-04-06T14:46:43.402Z,13.07
2023-04-06T14:49:10.700Z,15.93
2023-04-06T14:51:37.936Z,13.57
2023-04-06T14:54:05.104Z,11.77
2023-04-06T14:56:34.959Z,15.20
2023-04-06T14:59:04.921Z,19.30
2023-04-06T15:01:38.730Z,20.87
2023-04-06T15:04:09.658Z,11.00
2023-04-06T15:06:39.189Z,10.20
2023-04-06T15:09:06.397Z,10.30
2023-04-06T15:11:33.498Z,16.13
2023-04-06T15:14:04.203Z,11.63
2023-04-06T15:16:36.359Z,12.43
2023-04-06T15:19:03.951Z,12.13
2023-04-06T15:21:32.180Z,12.33
2023-04-06T15:23:59.404Z,17.97
2023-04-06T15:26:27.505Z,12.80
2023-04-06T15:28:57.019Z,10.57
2023-04-06T15:31:36.932Z,14.57
2023-04-06T15:34:11.333Z,10.37
2023-04-06T15:36:38.495Z,9.40
2023-04-06T15:39:09.789Z,10.43
2023-04-06T15:41:38.611Z,11.17
2023-04-06T15:44:07.881Z,13.60
2023-04-06T15:46:34.886Z,11.43
2023-04-06T15:49:01.988Z,12.00
2023-04-06T15:51:30.262Z,10.13
2023-04-06T15:53:58.672Z,11.00
2023-04-06T15:56:28.033Z,13.83
2023-04-06T15:58:55.270Z,10.90
2023-04-06T16:01:22.478Z,13.40
2023-04-06T16:03:52.624Z,12.30
2023-04-06T16:06:19.664Z,13.80
2023-04-06T16:08:46.856Z,13.60
2023-04-06T16:11:16.463Z,15.40
2023-04-06T16:13:47.293Z,17.70
2023-04-06T16:16:20.878Z,11.37
2023-04-06T16:18:52.565Z,10.43
2023-04-06T16:21:20.062Z,11.10
2023-04-06T16:23:51.800Z,12.40
2023-04-06T16:26:19.090Z,15.83
2023-04-06T16:28:48.362Z,13.57
2023-04-06T16:31:23.934Z,10.17
2023-04-06T16:33:54.459Z,15.70
2023-04-06T16:36:28.694Z,11.27
2023-04-06T16:39:02.437Z,12.73
2023-04-06T16:41:29.613Z,16.27
2023-04-06T16:44:01.258Z,12.67
2023-04-06T16:46:38.553Z,12.87
2023-04-06T16:49:07.105Z,14.00
2023-04-06T16:51:34.977Z,16.33
2023-04-06T16:54:02.949Z,12.87
2023-04-06T16:56:30.188Z,14.60
2023-04-06T16:58:57.203Z,13.50
2023-04-06T17:01:28.992Z,17.67
2023-04-06T17:03:56.848Z,14.47
2023-04-06T17:06:24.228Z,14.40
2023-04-06T17:08:52.320Z,12.13
2023-04-06T17:11:25.540Z,13.90
2023-04-06T17:13:55.510Z,14.97
2023-04-06T17:16:27.053Z,15.20
2023-04-06T17:18:56.083Z,16.70
2023-04-06T17:21:23.270Z,19.80
2023-04-06T17:23:51.001Z,12.13
2023-04-06T17:26:18.713Z,15.53
2023-04-06T17:28:45.923Z,15.77
2023-04-06T17:31:16.740Z,14.97
2023-04-06T17:33:47.664Z,16.43
2023-04-06T17:36:15.011Z,22.93
2023-04-06T17:38:45.782Z,16.00
2023-04-06T17:41:14.198Z,18.33
2023-04-06T17:43:41.407Z,16.57
2023-04-06T17:46:08.543Z,22.83
2023-04-06T17:48:38.148Z,20.50
2023-04-06T17:51:05.606Z,16.20
2023-04-06T17:53:36.818Z,17.20
2023-04-06T17:56:04.765Z,16.70
2023-04-06T17:58:35.317Z,17.90
2023-04-06T18:01:08.386Z,17.87
2023-04-06T18:03:35.771Z,14.57
2023-04-06T18:06:16.869Z,18.23
2023-04-06T18:08:44.165Z,15.07
2023-04-06T18:11:21.438Z,17.30
2023-04-06T18:13:51.516Z,21.87
2023-04-06T18:16:21.127Z,18.37
2023-04-06T18:18:50.949Z,24.07
2023-04-06T18:21:18.204Z,29.07
2023-04-06T18:23:49.959Z,38.53
2023-04-06T18:26:19.821Z,33.70
2023-04-06T18:28:47.474Z,31.43
2023-04-06T18:31:17.231Z,29.73
2023-04-06T18:33:44.915Z,20.90
2023-04-06T18:36:11.844Z,18.17
2023-04-06T18:38:49.203Z,32.67
2023-04-06T18:41:20.695Z,26.17
2023-04-06T18:43:47.796Z,19.00
2023-04-06T18:46:21.117Z,16.97
2023-04-06T18:48:59.661Z,20.23
2023-04-06T18:51:32.773Z,20.83
2023-04-06T18:54:02.358Z,16.33
2023-04-06T18:56:31.810Z,19.00
2023-04-06T18:58:58.779Z,32.23
2023-04-06T19:01:34.102Z,16.47
2023-04-06T19:04:01.672Z,16.70
2023-04-06T19:06:34.028Z,19.90
2023-04-06T19:09:05.062Z,18.57
2023-04-06T19:11:32.500Z,19.30
2023-04-06T19:14:01.921Z,18.20
2023-04-06T19:16:29.127Z,21.73
2023-04-06T19:18:56.491Z,22.37
2023-04-06T19:21:26.309Z,21.30
2023-04-06T19:23:55.449Z,17.17
2023-04-06T19:26:24.232Z,17.53
2023-04-06T19:28:54.228Z,16.83
2023-04-06T19:31:27.951Z,20.80
2023-04-06T19:33:55.674Z,16.53
2023-04-06T19:36:28.335Z,21.27
2023-04-06T19:38:56.028Z,16.50
2023-04-06T19:41:24.124Z,17.23
2023-04-06T19:43:53.734Z,17.67
2023-04-06T19:46:25.628Z,19.70
2023-04-06T19:48:57.252Z,19.33
2023-04-06T19:51:24.264Z,22.00
2023-04-06T19:53:51.370Z,17.90
2023-04-06T19:56:18.379Z,18.83
2023-04-06T19:58:47.330Z,20.13
2023-04-06T20:01:19.795Z,18.60
2023-04-06T20:03:47.118Z,23.67
2023-04-06T20:06:14.247Z,17.47
2023-04-06T20:08:41.501Z,20.97
2023-04-06T20:11:11.159Z,18.97
2023-04-06T20:13:38.493Z,24.73
2023-04-06T20:16:08.223Z,15.70
2023-04-06T20:18:37.596Z,16.23
2023-04-06T20:21:07.757Z,24.77
2023-04-06T20:23:37.643Z,26.00
2023-04-06T20:26:08.629Z,19.50
2023-04-06T20:28:35.777Z,24.17
2023-04-06T20:31:02.776Z,20.53
2023-04-06T20:33:29.875Z,24.60
2023-04-06T20:36:01.409Z,20.10
2023-04-06T20:40:59.764Z,19.07
2023-04-06T20:43:28.933Z,21.23
2023-04-06T20:45:57.805Z,21.00
2023-04-06T20:48:26.046Z,26.13
2023-04-06T20:50:53.129Z,25.33
2023-04-06T20:53:20.961Z,17.33
2023-04-06T20:55:50.363Z,17.40
2023-04-06T20:58:20.701Z,19.30
2023-04-06T21:00:50.812Z,26.03
2023-04-06T21:03:18.259Z,17.10
2023-04-06T21:05:54.397Z,17.70
2023-04-06T21:08:21.553Z,23.13
2023-04-06T21:10:48.496Z,21.50
2023-04-06T21:13:17.880Z,24.63
2023-04-06T21:15:44.942Z,19.47
2023-04-06T21:18:12.449Z,20.67
2023-04-06T21:20:40.083Z,21.17
2023-04-06T21:23:09.435Z,23.67
2023-04-06T21:25:39.497Z,23.20
2023-04-06T21:28:09.085Z,17.43
2023-04-06T21:30:39.909Z,16.50
2023-04-06T21:33:09.576Z,18.20
2023-04-06T21:35:42.785Z,25.10
2023-04-06T21:38:10.458Z,21.93
2023-04-06T21:40:40.066Z,28.73
2023-04-06T21:43:07.277Z,23.63
2023-04-06T21:45:34.269Z,24.70
2023-04-06T21:48:04.351Z,18.80
2023-04-06T21:50:33.897Z,25.00
2023-04-06T21:53:03.146Z,26.80
2023-04-06T21:55:30.063Z,21.00
2023-04-06T21:57:57.237Z,24.90
2023-04-06T22:00:27.369Z,31.83
2023-04-06T22:02:58.987Z,19.37
2023-04-06T22:05:26.318Z,34.70
2023-04-06T22:07:57.254Z,21.43
2023-04-06T22:10:29.592Z,30.47
2023-04-06T22:12:58.978Z,17.00
2023-04-06T22:15:26.743Z,24.67
2023-04-06T22:17:53.847Z,21.60
2023-04-06T22:20:21.093Z,25.07
2023-04-06T22:22:50.792Z,19.77
2023-04-06T22:25:20.192Z,21.20
2023-04-06T22:27:47.082Z,25.43
2023-04-06T22:30:18.622Z,20.00
2023-04-06T22:32:48.030Z,26.40
2023-04-06T22:35:15.370Z,19.80
2023-04-06T22:37:43.733Z,20.17
2023-04-06T22:40:12.204Z,25.10
2023-04-06T22:42:39.432Z,20.37
2023-04-06T22:45:07.170Z,24.70
2023-04-06T22:47:34.332Z,17.93
2023-04-06T22:50:01.466Z,25.03
2023-04-06T22:52:28.844Z,18.17
2023-04-06T22:54:58.084Z,25.00
2023-04-06T22:57:25.469Z,28.50
2023-04-06T22:59:52.777Z,21.97
2023-04-06T23:02:19.912Z,19.87
2023-04-06T23:04:49.455Z,32.13
2023-04-06T23:07:16.577Z,19.40
2023-04-06T23:09:48.151Z,17.80
2023-04-06T23:12:15.591Z,22.70
2023-04-06T23:14:45.057Z,17.97
2023-04-06T23:17:12.705Z,19.90
2023-04-06T23:19:39.955Z,17.70
2023-04-06T23:22:07.007Z,14.77
2023-04-06T23:24:34.077Z,23.60
2023-04-06T23:27:03.178Z,19.73
2023-04-06T23:29:30.439Z,18.07
2023-04-06T23:32:01.123Z,20.70
2023-04-06T23:34:30.204Z,18.53
2023-04-06T23:37:03.005Z,16.87
2023-04-06T23:39:33.152Z,23.97
2023-04-06T23:42:01.541Z,18.73
2023-04-06T23:44:31.990Z,16.70
2023-04-06T23:46:59.110Z,20.27
2023-04-06T23:49:26.178Z,16.70
2023-04-06T23:51:53.201Z,22.63
2023-04-06T23:54:22.633Z,18.30
2023-04-06T23:56:52.127Z,22.37
2023-04-06T23:59:19.252Z,15.23
